Time;durP1;ratioP1;P1;durP2;ratioP2;P2;SDS_P1;SDS_P2;PMS_P1;PMS_P2;Temp;Humidity;BMP_temperature;BMP_pressure;BME280_temperature;BME280_humidity;BME280_pressure;Samples;Min_cycle;Max_cycle;Signal;HPM_P1;HPM_P2
2022/06/08 00:01:20;;;;;;;5.50;3.83;;;10.90;99.90;;;;;;5057115;28;20524;-65
2022/06/08 00:03:56;;;;;;;6.90;3.25;;;10.90;99.90;;;;;;5050300;28;20045;-67
2022/06/08 00:06:21;;;;;;;7.25;3.65;;;10.90;99.90;;;;;;5052798;28;20412;-66
2022/06/08 00:08:47;;;;;;;4.65;3.33;;;10.90;99.90;;;;;;5054076;28;20040;-66
2022/06/08 00:11:14;;;;;;;5.10;3.58;;;11.00;99.90;;;;;;5053980;28;20044;-66
2022/06/08 00:13:42;;;;;;;8.75;3.83;;;10.80;99.90;;;;;;5052023;28;20044;-65
2022/06/08 00:16:09;;;;;;;7.18;3.85;;;10.80;99.90;;;;;;5056018;28;20057;-66
2022/06/08 00:18:34;;;;;;;6.68;3.60;;;10.80;99.90;;;;;;5059079;28;20041;-66
2022/06/08 00:21:00;;;;;;;5.35;3.88;;;10.80;99.90;;;;;;5048163;28;20513;-66
2022/06/08 00:23:26;;;;;;;5.40;3.13;;;10.80;99.90;;;;;;5052651;28;20506;-66
2022/06/08 00:25:51;;;;;;;4.10;3.33;;;10.80;99.90;;;;;;5050941;28;20048;-66
2022/06/08 00:28:18;;;;;;;6.57;3.40;;;10.70;99.90;;;;;;5053050;28;20053;-66
2022/06/08 00:30:44;;;;;;;6.60;4.05;;;11.20;99.90;;;;;;5053430;28;20036;-66
2022/06/08 00:33:09;;;;;;;6.88;4.30;;;10.70;99.90;;;;;;5051700;28;20436;-65
2022/06/08 00:35:36;;;;;;;5.88;3.60;;;10.70;99.90;;;;;;5053291;28;20052;-66
2022/06/08 00:38:02;;;;;;;15.23;4.18;;;11.00;99.90;;;;;;5054604;28;20076;-66
2022/06/08 00:41:04;;;;;;;6.80;3.90;;;10.70;99.90;;;;;;5055477;28;20130;-67
2022/06/08 00:43:30;;;;;;;4.82;3.17;;;10.60;99.90;;;;;;5049893;28;20045;-66
2022/06/08 00:45:57;;;;;;;10.85;3.90;;;10.60;99.90;;;;;;5053073;28;20052;-65
2022/06/08 00:48:26;;;;;;;4.78;3.58;;;10.60;99.90;;;;;;5049850;28;20057;-66
2022/06/08 00:50:55;;;;;;;5.03;3.53;;;10.60;99.90;;;;;;5045601;28;20048;-66
2022/06/08 00:53:34;;;;;;;17.92;3.95;;;10.60;99.90;;;;;;5053924;28;20063;-66
2022/06/08 00:56:04;;;;;;;7.90;3.83;;;10.50;99.90;;;;;;5046788;28;20056;-66
2022/06/08 00:58:33;;;;;;;3.97;3.55;;;10.50;99.90;;;;;;5054307;28;20059;-66
2022/06/08 01:00:59;;;;;;;5.13;3.63;;;10.50;99.90;;;;;;5050594;28;20048;-65
2022/06/08 01:03:27;;;;;;;5.15;3.30;;;10.50;99.90;;;;;;5053853;28;20048;-66
2022/06/08 01:06:06;;;;;;;5.10;3.22;;;10.50;99.90;;;;;;5053270;28;20120;-66
2022/06/08 01:08:41;;;;;;;5.75;3.63;;;10.50;99.90;;;;;;5058184;28;20037;-66
2022/06/08 01:11:12;;;;;;;4.50;3.20;;;10.50;99.90;;;;;;5045506;28;20044;-66
2022/06/08 01:13:39;;;;;;;3.33;3.13;;;10.50;99.90;;;;;;5051652;28;20109;-66
2022/06/08 01:16:08;;;;;;;3.80;3.45;;;10.40;99.90;;;;;;5048569;28;20552;-66
2022/06/08 01:18:34;;;;;;;3.92;3.05;;;10.40;99.90;;;;;;5054063;28;20476;-66
2022/06/08 01:21:21;;;;;;;4.78;3.90;;;10.70;99.90;;;;;;5053109;28;20049;-65
2022/06/08 01:24:00;;;;;;;8.30;3.90;;;10.40;99.90;;;;;;5052133;28;20051;-66
2022/06/08 01:26:32;;;;;;;6.78;3.53;;;10.40;99.90;;;;;;5053383;28;20068;-66
2022/06/08 01:29:04;;;;;;;4.95;4.05;;;10.40;99.90;;;;;;5050477;28;20053;-66
2022/06/08 01:31:34;;;;;;;;;;;10.40;99.90;;;;;;5049838;28;20044;-66
2022/06/08 01:34:11;;;;;;;6.43;4.10;;;10.40;99.90;;;;;;5053761;28;20481;-65
2022/06/08 01:37:07;;;;;;;6.78;3.80;;;10.50;99.90;;;;;;5050685;28;20102;-66
2022/06/08 01:40:06;;;;;;;4.47;3.80;;;10.30;99.90;;;;;;5051896;28;20406;-65
2022/06/08 01:43:06;;;;;;;3.65;3.35;;;10.30;99.90;;;;;;5051891;28;20374;-66
2022/06/08 01:45:53;;;;;;;3.72;3.42;;;10.30;99.90;;;;;;5055258;28;20063;-66
2022/06/08 01:48:45;;;;;;;4.68;3.80;;;10.30;99.90;;;;;;5050632;28;20048;-66
2022/06/08 01:51:13;;;;;;;;;;;10.30;99.90;;;;;;5053612;28;20103;-66
2022/06/08 01:53:56;;;;;;;2.67;2.47;;;10.20;99.90;;;;;;5050455;28;20392;-65
2022/06/08 01:56:36;;;;;;;3.28;2.92;;;10.20;99.90;;;;;;5052445;28;20044;-66
2022/06/08 01:59:14;;;;;;;3.40;3.05;;;10.10;99.90;;;;;;5049795;28;20413;-66
2022/06/08 02:01:48;;;;;;;5.50;3.17;;;10.10;99.90;;;;;;5055576;28;20219;-65
2022/06/08 02:04:30;;;;;;;3.90;3.03;;;10.10;99.90;;;;;;5052550;28;20041;-65
2022/06/08 02:07:14;;;;;;;3.35;2.85;;;10.10;99.90;;;;;;5048879;28;20052;-65
2022/06/08 02:09:58;;;;;;;4.05;2.85;;;10.10;99.90;;;;;;5049995;28;20159;-65
2022/06/08 02:12:24;;;;;;;4.82;3.08;;;10.10;99.90;;;;;;5048246;28;20041;-65
2022/06/08 02:14:58;;;;;;;5.93;3.55;;;10.10;99.90;;;;;;5049999;28;20063;-66
2022/06/08 02:17:30;;;;;;;5.95;2.97;;;10.00;99.90;;;;;;5049603;28;20395;-65
2022/06/08 02:20:22;;;;;;;6.05;3.20;;;10.50;99.90;;;;;;5052971;28;20052;-65
2022/06/08 02:23:18;;;;;;;4.20;3.00;;;10.00;99.90;;;;;;5049446;28;20119;-66
2022/06/08 02:25:52;;;;;;;7.40;3.63;;;10.00;99.90;;;;;;5051237;28;20410;-65
2022/06/08 02:28:41;;;;;;;6.75;3.75;;;10.00;99.90;;;;;;5050667;28;20041;-66
2022/06/08 02:31:20;;;;;;;8.25;4.15;;;10.00;99.90;;;;;;5057403;28;20055;-66
2022/06/08 02:36:57;;;;;;;7.68;4.00;;;10.10;99.90;;;;;;5050717;28;20053;-65
2022/06/08 02:39:36;;;;;;;5.35;4.25;;;10.10;99.90;;;;;;5057500;28;20037;-66
2022/06/08 02:42:14;;;;;;;6.22;4.18;;;10.10;99.90;;;;;;5045036;28;20053;-65
2022/06/08 02:44:41;;;;;;;6.13;4.13;;;10.10;99.90;;;;;;5052131;28;20052;-65
2022/06/08 02:47:29;;;;;;;5.40;3.83;;;10.10;99.90;;;;;;5048759;28;20108;-66
2022/06/08 02:50:22;;;;;;;12.02;4.05;;;10.10;99.90;;;;;;5050204;28;20407;-65
2022/06/08 02:52:49;;;;;;;6.25;3.90;;;10.10;99.90;;;;;;5049964;28;20106;-66
2022/06/08 02:55:48;;;;;;;7.55;3.92;;;10.70;99.90;;;;;;5053270;28;20094;-66
2022/06/08 02:58:27;;;;;;;4.80;3.70;;;10.10;99.90;;;;;;5055964;28;20120;-65
2022/06/08 03:01:01;;;;;;;5.57;3.95;;;10.10;99.90;;;;;;5054593;28;20647;-65
2022/06/08 03:03:38;;;;;;;5.20;4.45;;;10.10;99.90;;;;;;5051507;28;20090;-66
2022/06/08 03:06:09;;;;;;;7.60;4.63;;;10.10;99.90;;;;;;5055039;28;20051;-66
2022/06/08 03:08:44;;;;;;;7.63;4.40;;;10.10;99.90;;;;;;5057002;28;20501;-66
2022/06/08 03:11:11;;;;;;;8.10;4.45;;;10.00;99.90;;;;;;5058035;28;20579;-65
2022/06/08 03:13:56;;;;;;;6.43;4.53;;;10.00;99.90;;;;;;5055164;28;20045;-65
2022/06/08 03:16:30;;;;;;;9.45;5.35;;;10.00;99.90;;;;;;5052549;28;20071;-65
2022/06/08 03:18:56;;;;;;;8.00;5.35;;;10.00;99.90;;;;;;5056247;28;20057;-66
2022/06/08 03:21:22;;;;;;;8.27;5.28;;;10.00;99.90;;;;;;5056254;28;20489;-66
2022/06/08 03:23:49;;;;;;;7.05;5.45;;;10.00;99.90;;;;;;5050023;28;20110;-66
2022/06/08 03:26:16;;;;;;;5.45;4.95;;;10.00;99.90;;;;;;5054435;28;20037;-66
2022/06/08 03:28:42;;;;;;;5.75;5.15;;;10.00;99.90;;;;;;5052908;28;20044;-66
2022/06/08 03:31:07;;;;;;;20.17;5.88;;;10.00;99.90;;;;;;5056760;28;20037;-66
2022/06/08 03:33:33;;;;;;;8.30;6.68;;;10.00;99.90;;;;;;5051139;28;20570;-65
2022/06/08 03:35:59;;;;;;;10.25;6.38;;;10.00;99.90;;;;;;5053347;28;20127;-66
2022/06/08 03:38:25;;;;;;;11.25;6.07;;;10.00;99.90;;;;;;5047925;28;20094;-66
2022/06/08 03:40:51;;;;;;;10.57;6.90;;;10.00;99.90;;;;;;5061751;28;20165;-66
2022/06/08 03:43:17;;;;;;;11.38;7.00;;;10.00;99.90;;;;;;5053437;28;20556;-66
2022/06/08 03:45:49;;;;;;;9.73;7.68;;;10.00;99.90;;;;;;5054580;28;20117;-66
2022/06/08 03:48:16;;;;;;;11.63;7.97;;;10.10;99.90;;;;;;5052652;28;20569;-66
2022/06/08 03:50:43;;;;;;;10.23;7.40;;;10.00;99.90;;;;;;5053438;28;20148;-66
2022/06/08 03:53:18;;;;;;;9.70;7.25;;;10.00;99.90;;;;;;5053097;28;20049;-65
2022/06/08 03:55:47;;;;;;;9.27;6.93;;;10.10;99.90;;;;;;5055189;28;20040;-66
2022/06/08 03:58:13;;;;;;;8.15;7.35;;;10.10;99.90;;;;;;5050311;28;20048;-66
2022/06/08 04:00:41;;;;;;;12.23;8.05;;;10.10;99.90;;;;;;5052609;28;20033;-67
2022/06/08 04:03:09;;;;;;;11.35;8.10;;;10.10;99.90;;;;;;5055752;28;20523;-66
2022/06/08 04:05:35;;;;;;;10.20;8.52;;;10.10;99.90;;;;;;5052003;28;20041;-66
2022/06/08 04:08:01;;;;;;;12.65;8.65;;;10.10;99.90;;;;;;5055663;28;20044;-65
2022/06/08 04:10:27;;;;;;;13.02;10.05;;;10.10;99.90;;;;;;5054615;28;20175;-68
2022/06/08 04:12:55;;;;;;;13.63;9.40;;;10.10;99.90;;;;;;5054632;28;20489;-65
2022/06/08 04:18:05;;;;;;;16.20;10.73;;;10.20;99.90;;;;;;5050665;28;20060;-66
2022/06/08 04:20:31;;;;;;;15.65;8.82;;;10.20;99.90;;;;;;5054677;28;20516;-66
2022/06/08 04:22:56;;;;;;;12.15;9.43;;;10.30;99.90;;;;;;5053455;28;20045;-65
2022/06/08 04:25:22;;;;;;;12.90;9.57;;;10.30;99.90;;;;;;5053015;28;20037;-66
2022/06/08 04:27:48;;;;;;;13.57;10.00;;;10.30;99.90;;;;;;5054665;28;20153;-65
2022/06/08 04:30:14;;;;;;;15.77;10.18;;;10.40;99.90;;;;;;5055433;28;20485;-66
2022/06/08 04:32:39;;;;;;;14.23;9.73;;;10.50;99.90;;;;;;5053526;28;20695;-66
2022/06/08 04:35:05;;;;;;;15.38;10.90;;;10.50;99.90;;;;;;5056232;28;20563;-66
2022/06/08 04:37:31;;;;;;;14.23;10.45;;;10.50;99.90;;;;;;5052666;28;20412;-66
2022/06/08 04:39:57;;;;;;;13.88;10.82;;;10.60;99.90;;;;;;5052266;28;20050;-66
2022/06/08 04:42:22;;;;;;;13.02;11.27;;;11.90;99.90;;;;;;5053671;28;20128;-66
2022/06/08 04:44:48;;;;;;;14.70;11.40;;;10.70;99.90;;;;;;5057085;28;20075;-65
2022/06/08 04:47:13;;;;;;;16.50;11.07;;;10.80;99.90;;;;;;5055024;28;20064;-65
2022/06/08 04:49:39;;;;;;;23.17;12.60;;;10.90;99.90;;;;;;5053088;28;20055;-66
2022/06/08 04:52:05;;;;;;;14.80;11.20;;;11.10;99.90;;;;;;5053847;28;21173;-65
2022/06/08 04:54:31;;;;;;;18.65;12.07;;;11.10;99.90;;;;;;5055457;28;20044;-65
2022/06/08 04:56:57;;;;;;;16.15;10.95;;;11.30;99.90;;;;;;5055504;28;20390;-65
2022/06/08 04:59:23;;;;;;;16.40;13.00;;;11.40;99.90;;;;;;5054823;28;20041;-66
2022/06/08 05:01:48;;;;;;;16.75;12.20;;;11.50;99.90;;;;;;5053311;28;20210;-66
2022/06/08 05:04:14;;;;;;;20.13;12.25;;;11.60;99.90;;;;;;5054758;28;20072;-66
2022/06/08 05:06:40;;;;;;;17.42;12.18;;;11.70;99.90;;;;;;5049881;28;20040;-65
2022/06/08 05:09:05;;;;;;;20.67;13.60;;;11.90;99.90;;;;;;5049755;28;20060;-66
2022/06/08 05:11:31;;;;;;;17.42;14.25;;;11.80;99.90;;;;;;5056759;28;20079;-66
2022/06/08 05:13:56;;;;;;;17.58;13.38;;;11.90;99.90;;;;;;5052361;28;20128;-66
2022/06/08 05:16:23;;;;;;;21.88;13.98;;;12.20;99.90;;;;;;5053329;28;20517;-66
2022/06/08 05:18:49;;;;;;;17.88;13.73;;;12.10;99.90;;;;;;5051894;28;20049;-66
2022/06/08 05:21:14;;;;;;;19.73;13.48;;;12.10;99.90;;;;;;5052355;28;20033;-66
2022/06/08 05:23:40;;;;;;;20.17;14.13;;;12.30;99.90;;;;;;5053848;28;20516;-67
2022/06/08 05:26:08;;;;;;;17.00;13.25;;;12.30;99.90;;;;;;5052680;28;20045;-66
2022/06/08 05:28:34;;;;;;;22.35;14.63;;;12.30;99.90;;;;;;5054391;28;20513;-66
2022/06/08 05:31:00;;;;;;;18.55;14.60;;;12.40;99.90;;;;;;5051716;28;20054;-66
2022/06/08 05:33:27;;;;;;;21.67;15.52;;;12.50;99.90;;;;;;5053965;28;20037;-66
2022/06/08 05:35:54;;;;;;;21.67;14.75;;;12.50;99.90;;;;;;5051780;28;20081;-67
2022/06/08 05:38:20;;;;;;;18.70;15.15;;;12.50;99.90;;;;;;5049978;28;20048;-66
2022/06/08 05:40:45;;;;;;;18.98;14.23;;;12.60;99.90;;;;;;5047368;28;20041;-67
2022/06/08 05:43:14;;;;;;;22.85;14.85;;;12.70;99.90;;;;;;5047399;28;20051;-66
2022/06/08 05:45:40;;;;;;;24.48;14.90;;;12.70;99.90;;;;;;5052011;28;20048;-66
2022/06/08 05:48:07;;;;;;;22.02;16.27;;;12.70;99.90;;;;;;5055013;28;20110;-65
2022/06/08 05:50:35;;;;;;;23.38;14.95;;;12.80;99.90;;;;;;5046956;28;20032;-66
2022/06/08 05:53:00;;;;;;;19.52;14.95;;;12.80;99.90;;;;;;5049844;28;20049;-66
2022/06/08 05:55:27;;;;;;;19.15;13.85;;;12.90;99.90;;;;;;5055515;28;20524;-66
2022/06/08 05:57:53;;;;;;;20.20;14.13;;;12.90;99.90;;;;;;5047669;28;20051;-67
2022/06/08 06:00:22;;;;;;;24.45;16.25;;;13.00;99.90;;;;;;5050781;28;20064;-66
2022/06/08 06:02:48;;;;;;;19.48;14.90;;;13.00;99.90;;;;;;5052805;28;20049;-66
2022/06/08 06:05:16;;;;;;;18.92;15.25;;;13.00;99.90;;;;;;5048431;28;20627;-66
2022/06/08 06:07:42;;;;;;;21.60;15.63;;;13.10;99.90;;;;;;5054937;28;20040;-66
2022/06/08 06:10:10;;;;;;;23.85;15.65;;;13.20;99.90;;;;;;5053267;28;20453;-66
2022/06/08 06:12:35;;;;;;;24.17;16.23;;;13.40;99.90;;;;;;5055825;28;20642;-66
2022/06/08 06:15:02;;;;;;;22.33;16.38;;;13.40;99.90;;;;;;5055936;28;20115;-66
2022/06/08 06:17:28;;;;;;;25.55;15.75;;;13.30;99.90;;;;;;5051591;28;20191;-66
2022/06/08 06:19:55;;;;;;;19.90;15.25;;;13.80;99.90;;;;;;5053136;28;20083;-65
2022/06/08 06:22:21;;;;;;;20.30;14.73;;;13.40;99.90;;;;;;5046476;28;20044;-66
2022/06/08 06:24:47;;;;;;;22.35;16.35;;;13.50;99.90;;;;;;5051585;28;20051;-65
2022/06/08 06:27:13;;;;;;;22.20;15.90;;;13.60;99.90;;;;;;5054850;28;20504;-66
2022/06/08 06:29:38;;;;;;;20.02;15.50;;;13.70;99.90;;;;;;5055094;28;20036;-66
2022/06/08 06:32:07;;;;;;;27.33;16.65;;;13.80;99.90;;;;;;5050118;28;20072;-67
2022/06/08 06:34:33;;;;;;;19.80;14.93;;;14.00;99.90;;;;;;5055947;28;20041;-65
2022/06/08 06:36:59;;;;;;;20.77;14.88;;;14.10;99.90;;;;;;5053439;28;20056;-67
2022/06/08 06:39:26;;;;;;;25.10;15.15;;;14.20;99.90;;;;;;5056855;28;20033;-66
2022/06/08 06:41:53;;;;;;;19.80;16.08;;;14.50;99.90;;;;;;5054849;28;20087;-66
2022/06/08 06:44:19;;;;;;;22.95;15.52;;;14.30;99.90;;;;;;5057695;28;20112;-66
2022/06/08 06:46:45;;;;;;;18.48;13.88;;;14.50;99.90;;;;;;5053705;28;20049;-66
2022/06/08 06:49:11;;;;;;;18.88;13.20;;;15.80;99.90;;;;;;5060608;28;20520;-66
2022/06/08 06:51:37;;;;;;;18.10;13.68;;;14.80;99.90;;;;;;5068016;28;20041;-66
2022/06/08 06:54:05;;;;;;;17.02;13.57;;;14.90;99.90;;;;;;5068895;28;20058;-65
2022/06/08 06:56:32;;;;;;;15.60;13.23;;;15.00;99.90;;;;;;5069757;28;20076;-66
2022/06/08 06:58:58;;;;;;;15.20;12.50;;;15.10;99.90;;;;;;5066144;28;20063;-66
2022/06/08 07:01:24;;;;;;;12.85;10.43;;;15.20;99.90;;;;;;5054766;28;20059;-66
2022/06/08 07:03:50;;;;;;;12.90;10.27;;;15.40;99.90;;;;;;5051713;28;20049;-65
2022/06/08 07:06:15;;;;;;;12.40;10.43;;;15.30;99.90;;;;;;5056561;28;20044;-66
2022/06/08 07:08:41;;;;;;;21.25;11.35;;;15.80;99.90;;;;;;5049865;28;20079;-66
2022/06/08 07:13:52;;;;;;;11.68;9.50;;;15.90;99.90;;;;;;5048142;28;20058;-65
2022/06/08 07:16:18;;;;;;;11.40;9.52;;;15.90;99.90;;;;;;5055618;28;20053;-68
2022/06/08 07:18:43;;;;;;;13.40;10.05;;;15.90;99.90;;;;;;5054332;28;20082;-66
2022/06/08 07:21:11;;;;;;;11.45;9.98;;;16.00;99.90;;;;;;5046729;28;20513;-66
2022/06/08 07:23:37;;;;;;;10.82;9.75;;;16.10;99.90;;;;;;5049797;28;20140;-66
2022/06/08 07:26:03;;;;;;;10.55;9.45;;;16.20;99.90;;;;;;5055383;28;20115;-66
2022/06/08 07:28:29;;;;;;;13.20;9.65;;;16.30;99.90;;;;;;5052934;28;20110;-66
2022/06/08 07:30:55;;;;;;;13.27;9.63;;;16.30;99.90;;;;;;5053515;28;20037;-66
2022/06/08 07:33:21;;;;;;;11.65;9.02;;;16.30;99.90;;;;;;5049442;28;20048;-66
2022/06/08 07:35:47;;;;;;;10.13;8.98;;;16.20;99.90;;;;;;5050237;28;20507;-66
2022/06/08 07:38:13;;;;;;;10.82;9.68;;;16.20;99.90;;;;;;5054343;28;20044;-65
2022/06/08 07:40:38;;;;;;;14.45;9.98;;;16.20;99.90;;;;;;5049186;28;20041;-65
2022/06/08 07:43:04;;;;;;;13.57;9.00;;;16.10;99.90;;;;;;5056060;28;20405;-68
2022/06/08 07:45:30;;;;;;;12.27;8.27;;;16.10;99.90;;;;;;5051712;28;20542;-65
2022/06/08 07:50:41;;;;;;;9.13;7.45;;;16.10;99.90;;;;;;5046189;28;20049;-63
2022/06/08 07:53:08;;;;;;;9.82;7.43;;;16.00;99.90;;;;;;5050219;28;20123;-70
2022/06/08 07:55:33;;;;;;;7.93;7.13;;;16.10;99.90;;;;;;5049699;28;20037;-65
2022/06/08 07:57:59;;;;;;;7.75;6.75;;;16.00;99.90;;;;;;5051506;28;20474;-66
2022/06/08 08:00:26;;;;;;;8.68;6.93;;;16.00;99.90;;;;;;5048758;28;20132;-69
2022/06/08 08:02:52;;;;;;;7.18;6.35;;;16.00;99.90;;;;;;5049054;28;20053;-69
2022/06/08 08:05:19;;;;;;;12.32;6.85;;;16.10;99.90;;;;;;5046762;28;20654;-68
2022/06/08 08:07:45;;;;;;;8.27;7.47;;;16.20;99.90;;;;;;5050944;28;20041;-69
2022/06/08 08:10:18;;;;;;;7.93;6.22;;;16.30;99.90;;;;;;5057442;28;20051;-69
2022/06/08 08:12:46;;;;;;;13.13;7.78;;;16.30;99.90;;;;;;5049774;28;20488;-69
2022/06/08 08:15:12;;;;;;;8.07;7.00;;;16.30;99.90;;;;;;5054941;28;20041;-69
2022/06/08 08:17:38;;;;;;;8.13;6.80;;;16.40;99.90;;;;;;5051806;28;20486;-69
2022/06/08 08:20:05;;;;;;;9.70;7.38;;;16.50;99.90;;;;;;5051594;28;20133;-70
2022/06/08 08:22:32;;;;;;;8.27;7.05;;;16.60;99.90;;;;;;5048790;28;20408;-70
2022/06/08 08:24:58;;;;;;;7.38;5.88;;;16.70;99.90;;;;;;5048843;28;20041;-70
2022/06/08 08:27:23;;;;;;;6.22;5.47;;;16.90;99.90;;;;;;5051311;28;20094;-69
2022/06/08 08:29:50;;;;;;;9.07;5.70;;;16.90;99.90;;;;;;5058372;28;20052;-70
2022/06/08 08:32:16;;;;;;;7.75;5.28;;;17.10;99.90;;;;;;5052625;28;20421;-69
2022/06/08 08:34:41;;;;;;;7.75;4.97;;;17.30;99.90;;;;;;5050625;28;20041;-69
2022/06/08 08:37:07;;;;;;;5.38;4.22;;;17.50;99.90;;;;;;5051854;28;20067;-70
2022/06/08 08:39:33;;;;;;;6.85;4.63;;;17.60;99.90;;;;;;5045566;28;20045;-70
2022/06/08 08:44:45;;;;;;;4.80;3.75;;;17.60;99.90;;;;;;5047514;28;20080;-70
2022/06/08 08:47:20;;;;;;;5.97;3.95;;;17.70;99.90;;;;;;5046285;28;20536;-70
2022/06/08 08:50:19;;;;;;;6.40;3.20;;;17.50;99.90;;;;;;5045751;28;20413;-70
2022/06/08 08:53:37;;;;;;;7.80;3.33;;;17.50;99.90;;;;;;5045780;28;20037;-70
2022/06/08 08:56:13;;;;;;;5.60;3.28;;;17.60;99.90;;;;;;5050887;28;20067;-70
2022/06/08 08:58:45;;;;;;;6.22;3.50;;;17.60;99.90;;;;;;5045883;28;20041;-70
2022/06/08 09:01:28;;;;;;;4.38;2.60;;;17.60;99.90;;;;;;5057404;28;20543;-70
2022/06/08 09:03:58;;;;;;;4.32;2.70;;;17.80;99.90;;;;;;5054463;28;20040;-69
2022/06/08 09:06:28;;;;;;;3.15;2.17;;;17.90;99.90;;;;;;5050512;28;20049;-69
2022/06/08 09:09:03;;;;;;;2.30;2.10;;;18.00;99.90;;;;;;5047390;28;20102;-70
2022/06/08 09:11:44;;;;;;;4.10;1.92;;;18.00;99.90;;;;;;5045348;28;20079;-70
2022/06/08 09:14:17;;;;;;;2.95;1.77;;;17.90;99.90;;;;;;5045396;28;20064;-70
2022/06/08 09:16:49;;;;;;;1.50;1.35;;;17.90;99.90;;;;;;5045615;28;20060;-70
2022/06/08 09:19:21;;;;;;;3.80;1.48;;;17.90;99.90;;;;;;5046235;28;20506;-70
2022/06/08 09:21:50;;;;;;;1.92;1.55;;;17.80;99.90;;;;;;5046053;28;20575;-70
2022/06/08 09:24:34;;;;;;;4.38;1.85;;;17.80;99.90;;;;;;5045475;28;20044;-70
2022/06/08 09:27:23;;;;;;;1.75;1.65;;;17.80;99.90;;;;;;5046236;28;20045;-70
2022/06/08 09:29:58;;;;;;;2.40;1.50;;;17.80;99.90;;;;;;5046053;28;20041;-70
2022/06/08 09:32:31;;;;;;;4.07;1.63;;;17.90;99.90;;;;;;5045755;28;20064;-71
2022/06/08 09:35:14;;;;;;;2.17;1.20;;;17.90;99.90;;;;;;5045537;28;20098;-70
2022/06/08 09:37:40;;;;;;;2.55;1.52;;;18.00;99.90;;;;;;5046233;28;20094;-70
2022/06/08 09:40:36;;;;;;;3.33;2.03;;;18.00;99.90;;;;;;5045003;28;20053;-70
2022/06/08 09:43:23;;;;;;;2.88;1.58;;;18.20;99.90;;;;;;5045477;28;20052;-70
2022/06/08 09:46:16;;;;;;;10.73;1.65;;;18.30;99.90;;;;;;5046208;28;20553;-70
2022/06/08 09:51:45;;;;;;;3.17;1.80;;;18.90;99.90;;;;;;5045508;28;20128;-70
2022/06/08 09:54:32;;;;;;;3.60;1.92;;;18.90;99.90;;;;;;5045003;28;20049;-70
2022/06/08 09:57:21;;;;;;;3.05;2.05;;;18.90;99.90;;;;;;5045572;28;20085;-70
2022/06/08 10:00:20;;;;;;;2.75;1.50;;;18.90;99.90;;;;;;5044886;28;20053;-70
2022/06/08 10:02:58;;;;;;;2.17;1.70;;;18.80;99.90;;;;;;5057138;28;20075;-68
2022/06/08 10:06:13;;;;;;;1.75;1.58;;;18.80;99.90;;;;;;5051792;28;20048;-69
2022/06/08 10:09:04;;;;;;;2.75;1.65;;;18.70;99.90;;;;;;4998693;28;20149;-69
2022/06/08 10:11:53;;;;;;;3.55;1.40;;;18.60;99.90;;;;;;5052014;28;20052;-69
2022/06/08 10:15:01;;;;;;;1.83;1.20;;;18.50;99.90;;;;;;5051609;28;20044;-69
2022/06/08 10:17:42;;;;;;;1.92;1.40;;;18.50;99.90;;;;;;5049418;28;20049;-69
2022/06/08 10:20:19;;;;;;;1.30;1.20;;;18.50;99.90;;;;;;5045278;28;20061;-69
2022/06/08 10:22:48;;;;;;;1.60;1.35;;;18.60;99.90;;;;;;5045592;28;20041;-69
2022/06/08 10:25:22;;;;;;;2.15;1.27;;;18.70;99.90;;;;;;5052813;28;20044;-69
2022/06/08 10:27:54;;;;;;;2.95;1.63;;;18.70;99.90;;;;;;5053270;28;20080;-70
2022/06/08 10:30:44;;;;;;;2.30;1.67;;;18.80;99.90;;;;;;5050621;28;20049;-69
2022/06/08 10:33:31;;;;;;;2.47;1.40;;;18.90;99.90;;;;;;5042917;28;20049;-69
2022/06/08 10:35:58;;;;;;;2.20;1.38;;;19.10;99.90;;;;;;5049861;28;20547;-69
2022/06/08 10:38:31;;;;;;;2.25;1.30;;;18.50;99.90;;;;;;5054196;28;20049;-69
2022/06/08 10:42:39;;;;;;;1.80;1.63;;;19.40;99.90;;;;;;5044713;28;20505;-70
2022/06/08 10:43:51;;;;;;;4.03;1.73;;;19.60;99.90;;;;;;5044758;28;20514;-69
2022/06/08 10:46:38;;;;;;;2.75;1.70;;;19.90;99.90;;;;;;5054263;28;20040;-69
2022/06/08 10:49:03;;;;;;;4.15;1.65;;;19.90;99.90;;;;;;5055821;28;20690;-69
2022/06/08 10:51:36;;;;;;;5.10;2.55;;;19.90;99.90;;;;;;5050787;28;20029;-69
2022/06/08 10:56:52;;;;;;;3.08;2.15;;;19.90;99.90;;;;;;5057054;28;20053;-69
2022/06/08 10:59:24;;;;;;;2.83;1.73;;;19.80;99.90;;;;;;5062225;28;20129;-69
2022/06/08 11:01:49;;;;;;;3.50;2.03;;;19.70;99.90;;;;;;5049639;28;20057;-69
2022/06/08 11:04:30;;;;;;;3.83;1.95;;;19.60;99.90;;;;;;5045699;28;20053;-69
2022/06/08 11:06:55;;;;;;;3.47;2.10;;;19.60;99.90;;;;;;5043091;28;20136;-69
2022/06/08 11:09:52;;;;;;;2.45;1.60;;;19.40;99.90;;;;;;5048844;28;20041;-68
2022/06/08 11:12:39;;;;;;;2.40;1.77;;;19.40;99.90;;;;;;5045561;28;20088;-64
2022/06/08 11:15:36;;;;;;;1.92;1.70;;;19.30;99.90;;;;;;5051090;28;20044;-64
2022/06/08 11:18:12;;;;;;;2.15;1.95;;;19.20;99.90;;;;;;5052675;28;20056;-63
2022/06/08 11:20:47;;;;;;;5.07;2.03;;;19.10;99.90;;;;;;5055739;28;20131;-64
2022/06/08 11:23:52;;;;;;;7.18;2.83;;;19.00;99.90;;;;;;5061512;28;20048;-65
2022/06/08 11:26:19;;;;;;;2.85;2.05;;;18.70;99.90;;;;;;5058174;28;20074;-67
2022/06/08 11:28:48;;;;;;;3.40;2.22;;;18.40;99.90;;;;;;5060648;28;20052;-67
2022/06/08 11:31:28;;;;;;;3.53;2.75;;;18.10;99.90;;;;;;5049075;28;20408;-65
2022/06/08 11:33:57;;;;;;;3.88;2.85;;;17.80;99.90;;;;;;5049958;28;20049;-65
2022/06/08 11:36:50;;;;;;;3.88;3.00;;;17.70;99.90;;;;;;5048009;28;20128;-65
2022/06/08 11:39:28;;;;;;;3.15;2.85;;;17.70;99.90;;;;;;5049469;28;20052;-65
2022/06/08 11:41:59;;;;;;;4.10;3.78;;;17.70;99.90;;;;;;5048096;28;20890;-65
2022/06/08 11:44:31;;;;;;;7.55;3.58;;;17.70;99.90;;;;;;5048863;28;20043;-65
2022/06/08 11:47:15;;;;;;;5.57;3.35;;;17.70;99.90;;;;;;5047439;28;20064;-65
2022/06/08 11:49:45;;;;;;;4.53;3.17;;;17.80;99.90;;;;;;5047750;28;20061;-65
2022/06/08 11:52:28;;;;;;;5.47;3.97;;;17.70;99.90;;;;;;5047295;28;20083;-65
2022/06/08 11:55:03;;;;;;;4.88;3.67;;;17.60;99.90;;;;;;5048083;28;20045;-65
2022/06/08 11:57:30;;;;;;;6.25;4.65;;;17.60;99.90;;;;;;5047445;28;20559;-66
2022/06/08 11:59:58;;;;;;;5.65;4.03;;;17.50;99.90;;;;;;5048197;28;20612;-65
2022/06/08 12:02:36;;;;;;;7.28;6.10;;;17.40;99.90;;;;;;5048625;28;20041;-65
2022/06/08 12:05:04;;;;;;;6.63;5.28;;;17.30;99.90;;;;;;5047489;28;20049;-65
2022/06/08 12:07:45;;;;;;;6.05;5.35;;;17.20;99.90;;;;;;5048493;28;20128;-65
2022/06/08 12:10:18;;;;;;;8.30;5.63;;;17.30;99.90;;;;;;5047563;28;20570;-66
2022/06/08 12:12:46;;;;;;;6.55;5.03;;;17.30;99.90;;;;;;5048583;28;20049;-65
2022/06/08 12:15:28;;;;;;;9.68;5.75;;;17.30;99.90;;;;;;5048220;28;20037;-65
2022/06/08 12:17:54;;;;;;;6.28;5.63;;;17.40;99.90;;;;;;5047449;28;20140;-65
2022/06/08 12:20:47;;;;;;;8.68;5.65;;;17.60;99.90;;;;;;5047936;28;20546;-65
2022/06/08 12:23:13;;;;;;;7.57;6.15;;;17.70;99.90;;;;;;5047085;28;20144;-65
2022/06/08 12:25:38;;;;;;;6.40;5.75;;;17.80;99.90;;;;;;5047438;28;20124;-65
2022/06/08 12:28:08;;;;;;;8.98;6.78;;;18.20;99.90;;;;;;5047591;28;20501;-65
2022/06/08 12:30:55;;;;;;;7.68;5.55;;;18.10;99.90;;;;;;5046849;28;20501;-65
2022/06/08 12:33:29;;;;;;;7.53;5.70;;;18.30;99.90;;;;;;5048024;28;20127;-65
2022/06/08 12:36:09;;;;;;;6.15;4.95;;;18.60;99.90;;;;;;5047888;28;20076;-65
2022/06/08 12:38:37;;;;;;;7.07;5.03;;;18.80;99.90;;;;;;5046986;28;20076;-65
2022/06/08 12:41:36;;;;;;;6.80;4.72;;;19.00;99.90;;;;;;5047739;28;20048;-65
2022/06/08 12:44:08;;;;;;;5.10;4.60;;;19.10;99.90;;;;;;5047501;28;20041;-65
2022/06/08 12:46:35;;;;;;;5.95;5.35;;;19.20;99.90;;;;;;5047023;28;20048;-65
2022/06/08 12:49:16;;;;;;;6.50;5.22;;;19.50;99.90;;;;;;5047061;28;20532;-65
2022/06/08 12:51:55;;;;;;;6.10;5.50;;;19.00;99.90;;;;;;5048105;28;20413;-65
2022/06/08 12:54:34;;;;;;;5.70;5.07;;;19.00;99.90;;;;;;5047066;28;20603;-65
2022/06/08 12:57:16;;;;;;;7.03;4.57;;;18.90;99.90;;;;;;5047208;28;20045;-65
2022/06/08 12:59:43;;;;;;;6.88;4.70;;;18.80;99.90;;;;;;5046749;28;20045;-65
2022/06/08 13:02:37;;;;;;;4.85;3.67;;;18.70;99.90;;;;;;5047138;28;20055;-65
2022/06/08 13:05:22;;;;;;;8.18;4.00;;;18.60;99.90;;;;;;5046169;28;20107;-65
2022/06/08 13:07:49;;;;;;;7.03;3.65;;;18.50;99.90;;;;;;5046251;28;20044;-65
2022/06/08 13:10:16;;;;;;;6.22;3.83;;;18.50;99.90;;;;;;5047406;28;20413;-65
2022/06/08 13:12:45;;;;;;;8.77;4.47;;;18.40;99.90;;;;;;5047126;28;20382;-65
2022/06/08 13:15:23;;;;;;;4.97;4.22;;;18.40;99.90;;;;;;5046315;28;20092;-65
2022/06/08 13:17:50;;;;;;;7.97;4.65;;;18.40;99.90;;;;;;5046279;28;20509;-65
2022/06/08 13:20:19;;;;;;;5.55;4.80;;;18.30;99.90;;;;;;5046576;28;20084;-65
2022/06/08 13:22:46;;;;;;;5.60;4.50;;;18.40;99.90;;;;;;5046975;28;20067;-65
2022/06/08 13:25:20;;;;;;;5.78;3.95;;;18.40;99.90;;;;;;5047009;28;20044;-65
2022/06/08 13:27:48;;;;;;;3.78;2.03;;;18.30;99.90;;;;;;5044943;28;20053;-66